createdAt,value
2022-08-17T00:11:33.964Z,0.00
2022-08-17T00:12:43.070Z,0.00
2022-08-17T00:14:34.256Z,0.00
2022-08-17T00:15:34.084Z,0.00
2022-08-17T00:16:52.613Z,0.00
2022-08-17T00:19:34.210Z,0.00
2022-08-17T00:20:35.078Z,0.00
2022-08-17T00:21:57.922Z,0.00
2022-08-17T00:27:34.459Z,0.00
2022-08-17T00:30:51.316Z,0.00
2022-08-17T00:35:34.899Z,0.00
2022-08-17T00:36:35.335Z,0.00
2022-08-17T00:42:35.319Z,0.00
2022-08-17T00:51:35.395Z,0.00
2022-08-17T00:52:35.712Z,0.00
2022-08-17T00:59:35.634Z,0.00
2022-08-17T01:01:35.958Z,0.00
2022-08-17T01:03:35.756Z,0.00
2022-08-17T01:06:35.651Z,0.00
2022-08-17T01:09:39.966Z,0.00
2022-08-17T01:10:57.619Z,0.00
2022-08-17T01:11:36.994Z,0.00
2022-08-17T01:12:35.808Z,0.00
2022-08-17T01:13:40.800Z,0.00
2022-08-17T01:14:35.868Z,0.00
2022-08-17T01:15:35.903Z,0.00
2022-08-17T01:16:35.931Z,0.00
2022-08-17T01:17:35.961Z,0.00
2022-08-17T01:18:35.988Z,0.00
2022-08-17T01:19:36.022Z,0.00
2022-08-17T01:20:47.910Z,0.00
2022-08-17T01:21:36.082Z,0.00
2022-08-17T01:22:36.111Z,0.00
2022-08-17T01:23:36.144Z,0.00
2022-08-17T01:24:36.174Z,0.00
2022-08-17T01:25:36.206Z,0.00
2022-08-17T01:26:36.235Z,0.00
2022-08-17T01:27:36.265Z,0.00
2022-08-17T01:28:53.741Z,0.00
2022-08-17T01:29:36.327Z,0.00
2022-08-17T01:30:58.000Z,0.00
2022-08-17T01:31:36.388Z,0.00
2022-08-17T01:32:36.417Z,0.00
2022-08-17T01:36:36.955Z,0.00
2022-08-17T01:37:36.588Z,0.00
2022-08-17T01:38:37.021Z,0.00
2022-08-17T01:41:36.998Z,0.00
2022-08-17T01:45:36.826Z,0.00
2022-08-17T01:56:38.377Z,0.00
2022-08-17T01:58:38.340Z,0.00
2022-08-17T02:00:46.901Z,0.00
2022-08-17T02:02:37.553Z,0.00
2022-08-17T02:04:10.793Z,0.00
2022-08-17T02:13:37.882Z,0.00
2022-08-17T02:14:38.118Z,0.00
2022-08-17T02:18:37.820Z,0.00
2022-08-17T02:20:42.664Z,0.00
2022-08-17T02:21:39.244Z,0.00
2022-08-17T02:29:39.577Z,0.00
2022-08-17T02:37:39.727Z,0.00
2022-08-17T02:40:39.822Z,0.00
2022-08-17T02:49:38.755Z,0.00
2022-08-17T02:58:39.755Z,0.00
2022-08-17T03:01:39.144Z,0.00
2022-08-17T03:02:39.151Z,0.00
2022-08-17T03:03:39.181Z,0.00
2022-08-17T03:04:39.211Z,0.00
2022-08-17T03:05:39.254Z,0.00
2022-08-17T03:06:39.689Z,0.00
2022-08-17T03:07:40.214Z,0.00
2022-08-17T03:30:40.037Z,0.00
2022-08-17T05:18:09.797Z,50.63
2022-08-17T05:19:09.828Z,50.63
2022-08-17T05:20:09.857Z,50.63
2022-08-17T05:21:09.891Z,50.63
2022-08-17T05:22:09.919Z,50.63
2022-08-17T05:23:09.951Z,50.63
2022-08-17T06:11:14.039Z,106.88
2022-08-17T06:12:14.329Z,118.13
2022-08-17T06:13:11.478Z,140.63
2022-08-17T06:14:11.928Z,258.75
2022-08-17T06:15:11.542Z,382.50
2022-08-17T06:16:28.221Z,275.63
2022-08-17T06:17:14.221Z,258.75
2022-08-17T06:30:12.012Z,129.38
2022-08-17T06:34:13.060Z,135.00
2022-08-17T06:52:12.697Z,691.88
2022-08-17T06:53:13.144Z,551.25
2022-08-17T06:54:12.976Z,472.50
2022-08-17T06:55:18.171Z,337.50
2022-08-17T06:57:12.860Z,247.50
2022-08-17T07:01:13.453Z,286.88
2022-08-17T07:02:13.633Z,236.25
2022-08-17T07:03:13.053Z,225.00
2022-08-17T07:04:13.102Z,230.63
2022-08-17T07:05:13.124Z,241.88
2022-08-17T07:06:13.157Z,270.00
2022-08-17T07:07:13.185Z,337.50
2022-08-17T07:08:13.223Z,371.25
2022-08-17T07:09:13.260Z,236.25
2022-08-17T07:10:13.290Z,191.25
2022-08-17T07:11:13.318Z,180.00
2022-08-17T07:12:13.355Z,168.75
2022-08-17T07:13:13.386Z,163.13
2022-08-17T07:14:17.150Z,157.50
2022-08-17T07:15:14.868Z,163.13
2022-08-17T07:16:13.488Z,163.13
2022-08-17T07:17:13.518Z,168.75
2022-08-17T07:18:13.552Z,185.63
2022-08-17T07:19:13.581Z,191.25
2022-08-17T07:20:13.617Z,191.25
2022-08-17T07:21:17.346Z,191.25
2022-08-17T07:22:13.684Z,196.88
2022-08-17T07:23:13.714Z,202.50
2022-08-17T07:24:29.701Z,208.13
2022-08-17T07:25:13.780Z,225.00
2022-08-17T07:26:13.815Z,258.75
2022-08-17T07:27:13.846Z,320.63
2022-08-17T07:28:13.881Z,365.63
2022-08-17T07:29:13.911Z,371.25
2022-08-17T07:30:13.945Z,365.63
2022-08-17T07:31:13.977Z,343.13
2022-08-17T07:32:14.013Z,337.50
2022-08-17T07:33:14.043Z,298.13
2022-08-17T07:34:14.077Z,275.63
2022-08-17T07:35:15.293Z,258.75
2022-08-17T07:36:14.147Z,236.25
2022-08-17T07:37:14.177Z,219.38
2022-08-17T07:38:24.857Z,213.75
2022-08-17T07:39:14.242Z,208.13
2022-08-17T07:40:16.218Z,219.38
2022-08-17T07:41:14.310Z,230.63
2022-08-17T07:42:14.341Z,247.50
2022-08-17T07:43:21.778Z,247.50
2022-08-17T07:44:14.408Z,247.50
2022-08-17T07:45:14.439Z,247.50
2022-08-17T07:46:14.474Z,247.50
2022-08-17T08:05:51.025Z,326.25
2022-08-17T08:06:50.250Z,298.13
2022-08-17T08:07:50.635Z,275.63
2022-08-17T08:09:50.546Z,258.75
2022-08-17T08:10:50.377Z,258.75
2022-08-17T08:12:52.762Z,219.38
2022-08-17T08:13:51.288Z,185.63
2022-08-17T08:14:50.711Z,174.38
2022-08-17T08:16:50.578Z,157.50
2022-08-17T08:20:53.723Z,163.13
2022-08-17T08:21:50.947Z,157.50
2022-08-17T08:22:50.771Z,146.25
2022-08-17T08:23:51.520Z,135.00
2022-08-17T08:26:51.606Z,112.50
2022-08-17T08:27:51.373Z,101.25
2022-08-17T08:33:51.136Z,78.75
2022-08-17T08:35:01.594Z,73.13
2022-08-17T08:35:51.195Z,73.13
2022-08-17T08:37:12.690Z,78.75
2022-08-17T08:37:51.345Z,90.00
2022-08-17T08:38:52.190Z,101.25
2022-08-17T08:39:51.760Z,106.88
2022-08-17T08:41:51.592Z,95.63
2022-08-17T08:42:51.620Z,90.00
2022-08-17T08:43:53.174Z,78.75
2022-08-17T08:46:51.549Z,67.50
2022-08-17T08:48:55.813Z,61.88
2022-08-17T08:50:51.671Z,61.88
2022-08-17T08:52:51.733Z,61.88
2022-08-17T08:53:52.277Z,61.88
2022-08-17T08:54:52.004Z,61.88
2022-08-17T08:55:52.433Z,61.88
2022-08-17T08:57:21.588Z,61.88
2022-08-17T08:58:51.923Z,56.25
2022-08-17T09:01:52.054Z,61.88
2022-08-17T09:05:36.411Z,73.13
2022-08-17T09:07:36.082Z,78.75
2022-08-17T09:09:41.315Z,84.38
2022-08-17T09:10:38.723Z,90.00
2022-08-17T09:12:02.560Z,90.00
2022-08-17T09:12:38.789Z,95.63
2022-08-17T09:13:38.818Z,90.00
2022-08-17T09:14:44.945Z,90.00
2022-08-17T09:15:38.993Z,90.00
2022-08-17T09:17:39.159Z,84.38
2022-08-17T09:19:39.003Z,78.75
2022-08-17T09:20:39.037Z,78.75
2022-08-17T09:21:39.064Z,78.75
2022-08-17T09:22:39.098Z,78.75
2022-08-17T09:23:39.127Z,78.75
2022-08-17T09:24:39.160Z,73.13
2022-08-17T09:25:39.192Z,73.13
2022-08-17T09:26:39.224Z,73.13
2022-08-17T09:27:39.264Z,67.50
2022-08-17T09:28:39.302Z,67.50
2022-08-17T09:29:40.242Z,61.88
2022-08-17T09:30:39.364Z,56.25
2022-08-17T09:31:49.118Z,56.25
2022-08-17T09:32:40.235Z,61.88
2022-08-17T09:34:39.489Z,61.88
2022-08-17T09:35:39.727Z,61.88
2022-08-17T09:36:39.552Z,61.88
2022-08-17T09:37:39.999Z,56.25
2022-08-17T09:38:39.820Z,56.25
2022-08-17T09:43:40.891Z,39.38
2022-08-17T09:44:39.803Z,39.38
2022-08-17T09:47:39.895Z,45.00
2022-08-17T09:48:41.236Z,45.00
2022-08-17T09:50:55.529Z,50.63
2022-08-17T09:51:40.030Z,50.63
2022-08-17T09:54:40.882Z,56.25
2022-08-17T09:57:40.419Z,45.00
2022-08-17T10:00:40.821Z,50.63
2022-08-17T10:03:40.604Z,67.50
2022-08-17T10:04:40.639Z,78.75
2022-08-17T10:06:40.696Z,106.88
2022-08-17T10:07:40.936Z,118.13
2022-08-17T10:10:41.907Z,140.63
2022-08-17T10:12:46.476Z,151.88
2022-08-17T10:14:43.766Z,157.50
2022-08-17T10:16:41.623Z,157.50
2022-08-17T10:19:43.933Z,168.75
2022-08-17T10:20:41.138Z,185.63
2022-08-17T10:21:40.970Z,196.88
2022-08-17T10:22:41.712Z,219.38
2022-08-17T10:27:41.162Z,253.13
2022-08-17T10:28:41.390Z,241.88
2022-08-17T10:32:41.518Z,236.25
2022-08-17T10:34:41.985Z,253.13
2022-08-17T10:35:41.623Z,264.38
2022-08-17T10:36:41.643Z,275.63
2022-08-17T10:37:41.484Z,281.25
2022-08-17T10:40:41.778Z,298.13
2022-08-17T10:41:41.813Z,315.00
2022-08-17T10:42:41.835Z,320.63
2022-08-17T10:52:42.372Z,450.00
2022-08-17T10:53:41.980Z,433.13
2022-08-17T10:54:42.016Z,410.63
2022-08-17T10:55:42.045Z,455.63
2022-08-17T10:56:42.080Z,399.38
2022-08-17T10:57:42.112Z,382.50
2022-08-17T10:58:42.146Z,388.13
2022-08-17T10:59:42.184Z,371.25
2022-08-17T11:00:42.287Z,382.50
2022-08-17T11:01:42.244Z,376.88
2022-08-17T11:10:42.548Z,331.88
2022-08-17T11:11:42.580Z,343.13
2022-08-17T11:12:42.617Z,343.13
2022-08-17T11:13:42.649Z,315.00
2022-08-17T11:14:42.683Z,303.75
2022-08-17T11:15:42.718Z,298.13
2022-08-17T11:16:42.770Z,292.50
2022-08-17T11:17:42.799Z,303.75
2022-08-17T11:18:42.840Z,303.75
2022-08-17T11:19:42.869Z,298.13
2022-08-17T11:20:42.903Z,303.75
2022-08-17T11:21:42.933Z,286.88
2022-08-17T11:22:42.956Z,292.50
2022-08-17T11:23:42.989Z,286.88
2022-08-17T11:24:44.661Z,303.75
2022-08-17T11:25:43.058Z,309.38
2022-08-17T11:26:43.092Z,320.63
2022-08-17T11:27:43.126Z,303.75
2022-08-17T11:28:43.163Z,303.75
2022-08-17T11:29:43.195Z,331.88
2022-08-17T11:30:43.584Z,331.88
2022-08-17T11:31:43.481Z,320.63
2022-08-17T11:32:47.717Z,315.00
2022-08-17T11:33:43.330Z,331.88
2022-08-17T11:34:43.372Z,348.75
2022-08-17T11:35:43.400Z,348.75
2022-08-17T11:36:43.435Z,343.13
2022-08-17T11:37:43.474Z,326.25
2022-08-17T11:38:43.526Z,315.00
2022-08-17T11:39:43.590Z,315.00
2022-08-17T11:40:43.573Z,309.38
2022-08-17T11:41:43.617Z,298.13
2022-08-17T11:42:43.701Z,281.25
2022-08-17T11:43:43.692Z,275.63
2022-08-17T11:44:43.713Z,270.00
2022-08-17T11:45:43.751Z,264.38
2022-08-17T11:46:43.779Z,264.38
2022-08-17T11:47:57.015Z,258.75
2022-08-17T11:48:43.847Z,258.75
2022-08-17T11:49:43.881Z,281.25
2022-08-17T11:50:43.917Z,286.88
2022-08-17T11:51:43.947Z,298.13
2022-08-17T11:52:46.052Z,309.38
2022-08-17T11:53:44.016Z,331.88
2022-08-17T11:54:44.052Z,343.13
2022-08-17T11:55:45.061Z,354.38
2022-08-17T11:56:44.119Z,360.00
2022-08-17T11:57:44.153Z,371.25
2022-08-17T11:58:44.186Z,382.50
2022-08-17T11:59:44.221Z,393.75
2022-08-17T12:00:44.258Z,371.25
2022-08-17T12:01:44.288Z,376.88
2022-08-17T12:02:47.875Z,365.63
2022-08-17T12:03:55.614Z,348.75
2022-08-17T12:04:44.471Z,337.50
2022-08-17T12:05:44.425Z,320.63
2022-08-17T12:06:44.461Z,303.75
2022-08-17T12:07:44.570Z,286.88
2022-08-17T12:08:44.530Z,275.63
2022-08-17T12:09:47.249Z,258.75
2022-08-17T12:10:44.595Z,241.88
2022-08-17T12:11:55.413Z,230.63
2022-08-17T12:12:44.663Z,225.00
2022-08-17T12:13:44.701Z,219.38
2022-08-17T12:15:09.107Z,208.13
2022-08-17T12:15:44.769Z,208.13
2022-08-17T12:16:44.801Z,202.50
2022-08-17T12:17:44.837Z,202.50
2022-08-17T12:18:44.869Z,196.88
2022-08-17T12:19:44.907Z,191.25
2022-08-17T12:20:44.938Z,191.25
2022-08-17T12:21:44.973Z,196.88
2022-08-17T12:22:45.004Z,196.88
2022-08-17T12:23:45.044Z,196.88
2022-08-17T12:24:45.074Z,196.88
2022-08-17T12:25:45.109Z,196.88
2022-08-17T12:26:45.147Z,196.88
2022-08-17T12:28:04.608Z,174.38
2022-08-17T12:28:45.222Z,157.50
2022-08-17T12:29:45.250Z,157.50
2022-08-17T12:30:45.277Z,196.88
2022-08-17T12:31:45.313Z,202.50
2022-08-17T12:32:45.345Z,196.88
2022-08-17T12:33:45.381Z,196.88
2022-08-17T12:34:45.411Z,191.25
2022-08-17T12:35:45.463Z,191.25
2022-08-17T12:36:45.482Z,191.25
2022-08-17T12:37:45.516Z,196.88
2022-08-17T12:38:45.547Z,196.88
2022-08-17T12:39:45.692Z,196.88
2022-08-17T12:40:45.615Z,196.88
2022-08-17T12:41:45.656Z,196.88
2022-08-17T12:42:45.682Z,191.25
2022-08-17T12:43:45.718Z,191.25
2022-08-17T12:44:49.986Z,191.25
2022-08-17T12:45:45.787Z,185.63
2022-08-17T12:46:45.818Z,180.00
2022-08-17T12:47:45.904Z,168.75
2022-08-17T12:48:59.802Z,151.88
2022-08-17T12:49:45.922Z,151.88
2022-08-17T12:50:45.962Z,174.38
2022-08-17T12:51:45.989Z,163.13
2022-08-17T12:52:46.020Z,151.88
2022-08-17T12:53:46.257Z,168.75
2022-08-17T12:54:46.087Z,180.00
2022-08-17T12:55:46.125Z,185.63
2022-08-17T12:56:46.160Z,185.63
2022-08-17T12:57:46.260Z,191.25
2022-08-17T12:58:46.220Z,196.88
2022-08-17T12:59:46.258Z,202.50
2022-08-17T13:00:47.577Z,208.13
2022-08-17T13:01:46.407Z,213.75
2022-08-17T13:02:46.355Z,213.75
2022-08-17T13:03:46.423Z,208.13
2022-08-17T13:04:46.423Z,202.50
2022-08-17T13:05:46.460Z,180.00
2022-08-17T13:06:46.489Z,185.63
2022-08-17T13:07:46.723Z,202.50
2022-08-17T13:08:46.560Z,213.75
2022-08-17T13:09:46.590Z,213.75
2022-08-17T13:10:46.624Z,208.13
2022-08-17T13:11:46.659Z,213.75
2022-08-17T13:12:46.692Z,202.50
2022-08-17T13:13:46.728Z,208.13
2022-08-17T13:14:46.761Z,202.50
2022-08-17T13:15:46.794Z,202.50
2022-08-17T13:16:46.826Z,196.88
2022-08-17T13:17:46.946Z,191.25
2022-08-17T13:18:46.892Z,185.63
2022-08-17T13:19:46.928Z,185.63
2022-08-17T13:20:46.961Z,185.63
2022-08-17T13:21:46.994Z,185.63
2022-08-17T13:22:47.028Z,163.13
2022-08-17T13:23:53.719Z,163.13
2022-08-17T13:24:47.094Z,163.13
2022-08-17T13:25:47.132Z,163.13
2022-08-17T13:26:47.162Z,168.75
2022-08-17T13:27:47.203Z,168.75
2022-08-17T13:28:47.230Z,180.00
2022-08-17T13:29:52.407Z,185.63
2022-08-17T13:30:47.314Z,196.88
2022-08-17T13:31:52.898Z,208.13
2022-08-17T13:32:47.363Z,196.88
2022-08-17T13:33:47.399Z,196.88
2022-08-17T13:35:12.090Z,196.88
2022-08-17T13:35:50.266Z,196.88
2022-08-17T13:36:47.932Z,202.50
2022-08-17T13:37:47.532Z,202.50
2022-08-17T13:38:47.569Z,202.50
2022-08-17T13:39:47.631Z,180.00
2022-08-17T13:40:47.631Z,180.00
2022-08-17T13:41:47.666Z,168.75
2022-08-17T13:42:52.086Z,163.13
2022-08-17T13:43:47.732Z,157.50
2022-08-17T13:44:47.766Z,157.50
2022-08-17T13:45:50.707Z,157.50
2022-08-17T13:46:47.842Z,163.13
2022-08-17T13:47:47.865Z,168.75
2022-08-17T13:48:47.900Z,174.38
2022-08-17T13:49:48.867Z,180.00
2022-08-17T13:50:47.965Z,180.00
2022-08-17T13:51:48.000Z,174.38
2022-08-17T13:52:51.939Z,185.63
2022-08-17T13:53:48.068Z,208.13
2022-08-17T13:54:48.098Z,213.75
2022-08-17T13:55:48.136Z,219.38
2022-08-17T13:56:48.165Z,230.63
2022-08-17T13:57:48.199Z,241.88
2022-08-17T13:58:48.234Z,258.75
2022-08-17T13:59:54.804Z,241.88
2022-08-17T14:00:48.305Z,236.25
2022-08-17T14:01:53.471Z,241.88
2022-08-17T14:02:48.367Z,247.50
2022-08-17T14:03:48.399Z,247.50
2022-08-17T14:04:48.436Z,247.50
2022-08-17T14:05:48.466Z,247.50
2022-08-17T14:06:53.385Z,247.50
2022-08-17T14:07:48.534Z,241.88
2022-08-17T14:08:48.568Z,230.63
2022-08-17T14:09:48.602Z,219.38
2022-08-17T14:10:48.635Z,191.25
2022-08-17T14:11:48.669Z,180.00
2022-08-17T14:12:48.703Z,168.75
2022-08-17T14:13:48.737Z,163.13
2022-08-17T14:14:48.771Z,157.50
2022-08-17T14:15:54.965Z,157.50
2022-08-17T14:16:48.842Z,151.88
2022-08-17T14:17:48.870Z,151.88
2022-08-17T14:18:56.253Z,157.50
2022-08-17T14:19:48.937Z,163.13
2022-08-17T14:20:48.971Z,180.00
2022-08-17T14:21:49.004Z,185.63
2022-08-17T14:22:49.042Z,191.25
2022-08-17T14:23:54.919Z,196.88
2022-08-17T14:24:49.103Z,196.88
2022-08-17T14:25:49.136Z,196.88
2022-08-17T14:26:49.174Z,191.25
2022-08-17T14:27:53.396Z,185.63
2022-08-17T14:28:54.525Z,180.00
2022-08-17T14:29:49.271Z,180.00
2022-08-17T14:30:49.303Z,180.00
2022-08-17T14:31:54.112Z,174.38
2022-08-17T14:32:49.372Z,168.75
2022-08-17T14:33:49.406Z,163.13
2022-08-17T14:34:49.438Z,157.50
2022-08-17T14:35:49.473Z,157.50
2022-08-17T14:36:49.507Z,157.50
2022-08-17T14:37:49.768Z,168.75
2022-08-17T14:38:49.570Z,174.38
2022-08-17T14:39:49.692Z,180.00
2022-08-17T14:40:49.636Z,180.00
2022-08-17T14:41:49.671Z,185.63
2022-08-17T14:42:49.703Z,191.25
2022-08-17T14:43:49.734Z,196.88
2022-08-17T14:44:49.769Z,196.88
2022-08-17T14:45:49.801Z,202.50
2022-08-17T14:46:50.155Z,196.88
2022-08-17T14:47:50.035Z,196.88
2022-08-17T14:48:53.878Z,191.25
2022-08-17T14:49:49.935Z,191.25
2022-08-17T14:50:49.970Z,191.25
2022-08-17T14:51:49.997Z,196.88
2022-08-17T14:52:50.034Z,196.88
2022-08-17T14:53:50.066Z,202.50
2022-08-17T14:54:50.099Z,213.75
2022-08-17T14:55:50.131Z,225.00
2022-08-17T14:56:51.582Z,208.13
2022-08-17T14:57:50.411Z,225.00
2022-08-17T14:58:50.233Z,225.00
2022-08-17T14:59:52.346Z,225.00
2022-08-17T15:00:50.298Z,213.75
2022-08-17T15:01:50.425Z,202.50
2022-08-17T15:02:50.366Z,180.00
2022-08-17T15:03:50.396Z,174.38
2022-08-17T15:04:50.433Z,168.75
2022-08-17T15:05:50.463Z,157.50
2022-08-17T15:06:50.498Z,168.75
2022-08-17T15:07:50.789Z,163.13
2022-08-17T15:08:50.563Z,163.13
2022-08-17T15:09:50.598Z,157.50
2022-08-17T15:10:50.629Z,157.50
2022-08-17T15:11:50.686Z,163.13
2022-08-17T15:12:50.737Z,140.63
2022-08-17T15:13:52.346Z,157.50
2022-08-17T15:14:50.762Z,157.50
2022-08-17T15:15:50.794Z,157.50
2022-08-17T15:16:50.832Z,151.88
2022-08-17T15:17:50.885Z,146.25
2022-08-17T15:18:50.896Z,146.25
2022-08-17T15:19:50.938Z,146.25
2022-08-17T15:20:50.960Z,146.25
2022-08-17T15:21:50.993Z,135.00
2022-08-17T15:22:51.026Z,140.63
2022-08-17T15:23:51.059Z,140.63
2022-08-17T15:24:51.094Z,135.00
2022-08-17T15:25:51.125Z,135.00
2022-08-17T15:26:51.160Z,135.00
2022-08-17T15:27:51.455Z,140.63
2022-08-17T15:28:54.377Z,140.63
2022-08-17T15:29:51.265Z,151.88
2022-08-17T15:30:51.293Z,163.13
2022-08-17T15:31:51.323Z,168.75
2022-08-17T15:32:54.723Z,174.38
2022-08-17T15:33:51.388Z,168.75
2022-08-17T15:34:51.424Z,168.75
2022-08-17T15:35:51.455Z,163.13
2022-08-17T15:36:51.495Z,151.88
2022-08-17T15:37:51.837Z,146.25
2022-08-17T15:38:51.555Z,140.63
2022-08-17T15:39:51.686Z,129.38
2022-08-17T15:40:51.622Z,123.75
2022-08-17T15:41:58.038Z,118.13
2022-08-17T15:42:51.782Z,118.13
2022-08-17T15:43:51.719Z,112.50
2022-08-17T15:44:51.752Z,112.50
2022-08-17T15:45:58.714Z,112.50
2022-08-17T15:46:51.819Z,112.50
2022-08-17T15:47:52.114Z,106.88
2022-08-17T15:48:51.885Z,106.88
2022-08-17T15:49:56.676Z,106.88
2022-08-17T15:50:51.963Z,101.25
2022-08-17T15:51:51.984Z,101.25
2022-08-17T15:52:52.017Z,101.25
2022-08-17T15:53:52.047Z,101.25
2022-08-17T15:54:52.080Z,101.25
2022-08-17T15:55:52.118Z,101.25
2022-08-17T15:56:52.147Z,101.25
2022-08-17T15:57:52.576Z,101.25
2022-08-17T15:58:52.214Z,101.25
2022-08-17T15:59:55.079Z,101.25
2022-08-17T16:01:03.242Z,101.25
2022-08-17T16:03:16.011Z,95.63
2022-08-17T16:03:46.978Z,95.63
2022-08-17T16:04:04.069Z,95.63
2022-08-17T16:04:52.457Z,95.63
2022-08-17T16:05:52.441Z,95.63
2022-08-17T16:06:52.474Z,95.63
2022-08-17T16:07:53.412Z,95.63
2022-08-17T16:08:52.553Z,95.63
2022-08-17T16:09:52.571Z,95.63
2022-08-17T16:10:52.617Z,95.63
2022-08-17T16:11:55.107Z,95.63
2022-08-17T16:12:52.950Z,95.63
2022-08-17T16:13:54.880Z,95.63
2022-08-17T16:14:52.733Z,95.63
2022-08-17T16:15:57.088Z,95.63
2022-08-17T16:16:52.800Z,95.63
2022-08-17T16:17:53.168Z,95.63
2022-08-17T16:18:53.590Z,95.63
2022-08-17T16:19:55.932Z,95.63
2022-08-17T16:20:52.940Z,101.25
2022-08-17T16:21:52.965Z,101.25
2022-08-17T16:22:54.157Z,101.25
2022-08-17T16:23:53.022Z,101.25
2022-08-17T16:24:57.416Z,101.25
2022-08-17T16:25:54.433Z,101.25
2022-08-17T16:26:53.122Z,101.25
2022-08-17T16:27:53.326Z,106.88
2022-08-17T16:28:53.185Z,106.88
2022-08-17T16:29:55.478Z,106.88
2022-08-17T16:30:53.250Z,106.88
2022-08-17T16:31:53.280Z,106.88
2022-08-17T16:32:53.537Z,106.88
2022-08-17T16:34:03.793Z,101.25
2022-08-17T16:34:53.378Z,101.25
2022-08-17T16:35:53.409Z,95.63
2022-08-17T16:36:56.153Z,101.25
2022-08-17T16:37:53.474Z,95.63
2022-08-17T16:38:53.509Z,95.63
2022-08-17T16:39:53.867Z,101.25
2022-08-17T16:40:53.674Z,101.25
2022-08-17T16:41:53.606Z,106.88
2022-08-17T16:42:53.723Z,101.25
2022-08-17T16:43:53.670Z,95.63
2022-08-17T16:44:53.705Z,84.38
2022-08-17T16:45:53.737Z,84.38
2022-08-17T16:46:53.778Z,90.00
2022-08-17T16:47:53.796Z,90.00
2022-08-17T16:48:53.833Z,90.00
2022-08-17T16:49:53.896Z,95.63
2022-08-17T16:51:02.913Z,95.63
2022-08-17T16:51:53.927Z,95.63
2022-08-17T16:52:53.968Z,95.63
2022-08-17T16:53:58.702Z,90.00
2022-08-17T16:54:54.023Z,90.00
2022-08-17T16:55:54.057Z,90.00
2022-08-17T16:56:54.089Z,90.00
2022-08-17T16:57:54.120Z,90.00
2022-08-17T16:58:54.152Z,90.00
2022-08-17T16:59:54.184Z,90.00
2022-08-17T17:00:54.394Z,95.63
2022-08-17T17:01:54.248Z,95.63
2022-08-17T17:02:54.281Z,95.63
2022-08-17T17:03:58.137Z,95.63
2022-08-17T17:04:54.347Z,95.63
2022-08-17T17:05:57.873Z,95.63
2022-08-17T17:06:54.409Z,95.63
2022-08-17T17:07:54.440Z,90.00
2022-08-17T17:08:54.476Z,90.00
2022-08-17T17:09:54.507Z,90.00
2022-08-17T17:10:54.539Z,84.38
2022-08-17T17:11:54.584Z,78.75
2022-08-17T17:13:03.133Z,78.75
2022-08-17T17:13:54.636Z,73.13
2022-08-17T17:14:54.667Z,78.75
2022-08-17T17:15:54.698Z,67.50
2022-08-17T17:16:54.733Z,67.50
2022-08-17T17:17:54.763Z,67.50
2022-08-17T17:18:54.796Z,67.50
2022-08-17T17:19:54.826Z,67.50
2022-08-17T17:20:54.862Z,67.50
2022-08-17T17:21:54.894Z,67.50
2022-08-17T17:22:54.923Z,61.88
2022-08-17T17:23:55.157Z,61.88
2022-08-17T17:24:54.989Z,61.88
2022-08-17T17:25:55.019Z,61.88
2022-08-17T17:26:55.052Z,61.88
2022-08-17T17:27:55.086Z,61.88
2022-08-17T17:28:55.117Z,61.88
2022-08-17T17:29:55.165Z,61.88
2022-08-17T17:30:55.191Z,61.88
2022-08-17T17:31:55.229Z,61.88
2022-08-17T17:32:55.244Z,61.88
2022-08-17T17:33:55.274Z,61.88
2022-08-17T17:34:55.326Z,61.88
2022-08-17T17:35:55.349Z,61.88
2022-08-17T17:36:55.383Z,61.88
2022-08-17T17:37:55.417Z,56.25
2022-08-17T17:38:55.437Z,56.25
2022-08-17T17:39:55.546Z,56.25
2022-08-17T17:40:55.498Z,56.25
2022-08-17T17:41:55.543Z,56.25
2022-08-17T17:42:55.561Z,56.25
2022-08-17T17:43:55.592Z,50.63
2022-08-17T17:44:55.627Z,50.63
2022-08-17T17:45:55.658Z,50.63
2022-08-17T17:46:55.690Z,50.63
2022-08-17T17:47:55.718Z,50.63
2022-08-17T17:48:55.753Z,45.00
2022-08-17T17:49:55.784Z,45.00
2022-08-17T17:50:55.812Z,45.00
2022-08-17T17:52:11.020Z,45.00
2022-08-17T17:52:55.877Z,39.38
2022-08-17T17:53:55.907Z,39.38
2022-08-17T17:54:55.938Z,39.38
2022-08-17T17:55:55.972Z,39.38
2022-08-17T17:56:56.007Z,39.38
2022-08-17T17:57:56.037Z,39.38
2022-08-17T17:58:56.068Z,39.38
2022-08-17T17:59:56.095Z,33.75
2022-08-17T18:00:56.144Z,33.75
2022-08-17T18:01:56.214Z,33.75
2022-08-17T18:02:56.192Z,33.75
2022-08-17T18:03:56.239Z,33.75
2022-08-17T18:04:56.254Z,28.13
2022-08-17T18:05:56.288Z,28.13
2022-08-17T18:06:56.317Z,28.13
2022-08-17T18:07:56.346Z,28.13
2022-08-17T18:08:56.382Z,28.13
2022-08-17T18:10:01.077Z,28.13
2022-08-17T18:10:56.443Z,28.13
2022-08-17T18:11:59.054Z,28.13
2022-08-17T18:12:56.512Z,28.13
2022-08-17T18:13:56.537Z,22.50
2022-08-17T18:14:56.566Z,22.50
2022-08-17T18:15:56.602Z,22.50
2022-08-17T18:16:56.631Z,22.50
2022-08-17T18:17:56.662Z,22.50
2022-08-17T18:18:56.693Z,22.50
2022-08-17T18:19:56.725Z,22.50
2022-08-17T18:20:56.765Z,16.88
2022-08-17T18:21:56.787Z,16.88
2022-08-17T18:22:56.817Z,16.88
2022-08-17T18:23:57.052Z,16.88
2022-08-17T18:24:56.879Z,16.88
2022-08-17T18:25:56.914Z,16.88
2022-08-17T18:26:56.941Z,16.88
2022-08-17T18:27:56.975Z,11.25
2022-08-17T18:28:57.005Z,11.25
2022-08-17T18:29:57.039Z,11.25
2022-08-17T18:30:57.067Z,11.25
2022-08-17T18:31:57.098Z,11.25
2022-08-17T18:32:57.131Z,11.25
2022-08-17T18:33:57.164Z,11.25
2022-08-17T18:34:57.194Z,5.63
2022-08-17T18:35:58.468Z,5.63
2022-08-17T18:36:57.255Z,5.63
2022-08-17T18:37:57.290Z,5.63
2022-08-17T18:38:57.318Z,5.63
2022-08-17T18:39:57.487Z,5.63
2022-08-17T18:40:57.379Z,5.63
2022-08-17T18:41:57.413Z,5.63
2022-08-17T18:42:57.519Z,5.63
2022-08-17T18:43:57.475Z,5.63
2022-08-17T18:44:57.507Z,5.63
2022-08-17T18:45:57.743Z,0.00
2022-08-17T18:46:57.569Z,0.00
2022-08-17T18:47:57.601Z,0.00
2022-08-17T18:48:58.871Z,0.00
2022-08-17T18:49:57.671Z,0.00
2022-08-17T18:50:57.692Z,0.00
2022-08-17T18:51:57.928Z,0.00
2022-08-17T18:52:57.754Z,0.00
2022-08-17T18:53:57.788Z,0.00
2022-08-17T18:54:57.818Z,0.00
2022-08-17T18:55:57.849Z,0.00
2022-08-17T18:56:57.878Z,0.00
2022-08-17T18:57:57.911Z,0.00
2022-08-17T18:58:57.941Z,0.00
2022-08-17T18:59:57.973Z,0.00
2022-08-17T19:00:58.004Z,0.00
2022-08-17T19:01:59.891Z,0.00
2022-08-17T19:02:58.126Z,0.00
2022-08-17T19:03:58.100Z,0.00
2022-08-17T19:04:58.132Z,0.00
2022-08-17T19:05:58.160Z,0.00
2022-08-17T19:06:58.188Z,0.00
2022-08-17T19:07:58.222Z,0.00
2022-08-17T19:08:58.251Z,0.00
2022-08-17T19:09:58.284Z,0.00
2022-08-17T19:10:58.314Z,0.00
2022-08-17T19:11:58.344Z,0.00
2022-08-17T19:13:00.322Z,0.00
2022-08-17T19:13:58.409Z,0.00
2022-08-17T19:14:58.438Z,0.00
2022-08-17T19:16:11.780Z,0.00
2022-08-17T19:16:58.497Z,0.00
2022-08-17T19:17:58.531Z,0.00
2022-08-17T19:18:58.559Z,0.00
2022-08-17T19:19:58.598Z,0.00
2022-08-17T19:20:58.622Z,0.00
2022-08-17T19:21:58.655Z,0.00
2022-08-17T19:22:58.684Z,0.00
2022-08-17T19:23:58.723Z,0.00
2022-08-17T19:25:03.521Z,0.00
2022-08-17T19:25:58.779Z,0.00
2022-08-17T19:26:58.806Z,0.00
2022-08-17T19:27:58.991Z,0.00
2022-08-17T19:28:58.868Z,0.00
2022-08-17T19:30:01.637Z,0.00
2022-08-17T19:30:58.929Z,0.00
2022-08-17T19:31:58.968Z,0.00
2022-08-17T19:32:58.992Z,0.00
2022-08-17T19:33:59.026Z,0.00
2022-08-17T19:34:59.052Z,0.00
2022-08-17T19:35:59.087Z,0.00
2022-08-17T19:36:59.114Z,0.00
2022-08-17T19:37:59.146Z,0.00
2022-08-17T19:38:59.177Z,0.00
2022-08-17T19:39:59.309Z,0.00
2022-08-17T19:40:59.289Z,0.00
2022-08-17T19:41:59.270Z,0.00
2022-08-17T19:42:59.298Z,0.00
2022-08-17T19:43:59.331Z,0.00
2022-08-17T19:44:59.360Z,0.00
2022-08-17T19:45:59.553Z,0.00
2022-08-17T19:47:00.856Z,0.00
2022-08-17T19:48:02.866Z,0.00
2022-08-17T19:48:59.483Z,0.00
2022-08-17T19:49:59.516Z,0.00
2022-08-17T19:50:59.551Z,0.00
2022-08-17T19:51:59.595Z,0.00
2022-08-17T19:52:59.609Z,0.00